Time;durP1;ratioP1;P1;durP2;ratioP2;P2;SDS_P1;SDS_P2;PMS_P1;PMS_P2;Temp;Humidity;BMP_temperature;BMP_pressure;BME280_temperature;BME280_humidity;BME280_pressure;Samples;Min_cycle;Max_cycle;Signal;HPM_P1;HPM_P2
2024/04/10 00:00:13;;;;;;;7.13;2.30;;;11.50;99.90;;;;;;5473273;26;20010;-33
2024/04/10 00:02:47;;;;;;;4.75;1.70;;;11.50;99.90;;;;;;5473471;26;20002;-35
2024/04/10 00:05:13;;;;;;;7.38;1.80;;;11.40;99.90;;;;;;5473710;26;20331;-34
2024/04/10 00:07:38;;;;;;;6.55;2.05;;;11.40;99.90;;;;;;5471619;26;20566;-35
2024/04/10 00:10:04;;;;;;;9.57;2.40;;;11.40;99.90;;;;;;5473766;26;20013;-35
2024/04/10 00:12:30;;;;;;;5.90;2.13;;;11.40;99.90;;;;;;5473401;26;20002;-36
2024/04/10 00:14:56;;;;;;;8.93;2.47;;;11.30;99.90;;;;;;5472348;26;20002;-35
2024/04/10 00:17:21;;;;;;;7.65;2.50;;;11.30;99.90;;;;;;5473122;26;20013;-36
2024/04/10 00:19:57;;;;;;;6.18;1.80;;;11.30;99.90;;;;;;5473175;26;19994;-37
2024/04/10 00:22:22;;;;;;;5.30;1.63;;;11.30;99.90;;;;;;5472566;26;19998;-37
2024/04/10 00:24:51;;;;;;;6.88;2.40;;;11.20;99.90;;;;;;5473499;26;20061;-34
2024/04/10 00:27:17;;;;;;;9.70;2.15;;;11.20;99.90;;;;;;5475616;26;20006;-35
2024/04/10 00:29:42;;;;;;;7.97;2.67;;;11.10;99.90;;;;;;5474958;26;20074;-37
2024/04/10 00:32:08;;;;;;;7.85;2.15;;;11.10;99.90;;;;;;5477180;26;19994;-34
2024/04/10 00:34:35;;;;;;;4.57;1.83;;;11.10;99.90;;;;;;5476625;26;19998;-35
2024/04/10 00:37:01;;;;;;;8.05;2.30;;;11.10;99.90;;;;;;5477375;26;19994;-33
2024/04/10 00:39:27;;;;;;;9.73;2.67;;;11.00;99.90;;;;;;5476504;26;19998;-33
2024/04/10 00:41:53;;;;;;;8.50;2.33;;;11.10;99.90;;;;;;5476783;26;20005;-37
2024/04/10 00:44:19;;;;;;;8.13;2.95;;;11.10;99.90;;;;;;5476496;26;19994;-40
2024/04/10 00:46:44;;;;;;;9.70;2.60;;;11.10;99.90;;;;;;5477266;26;20102;-34
2024/04/10 00:49:10;;;;;;;9.77;2.28;;;11.00;99.90;;;;;;5476160;26;20788;-36
2024/04/10 00:51:36;;;;;;;10.02;2.83;;;11.10;99.90;;;;;;5476320;26;20492;-36
2024/04/10 00:54:05;;;;;;;11.90;2.78;;;11.00;99.90;;;;;;5476308;26;20009;-35
2024/04/10 00:56:31;;;;;;;5.55;1.90;;;11.00;99.90;;;;;;5474943;26;20009;-35
2024/04/10 00:59:02;;;;;;;7.88;2.38;;;11.00;99.90;;;;;;5475887;26;19998;-35
2024/04/10 01:01:28;;;;;;;7.03;1.60;;;11.00;99.90;;;;;;5476991;26;19994;-35
2024/04/10 01:03:54;;;;;;;7.30;2.40;;;11.00;99.90;;;;;;5475681;26;20078;-36
2024/04/10 01:06:29;;;;;;;7.22;2.03;;;11.00;99.90;;;;;;5476364;26;19994;-36
2024/04/10 01:08:54;;;;;;;8.65;2.28;;;11.00;99.90;;;;;;5476151;26;20459;-35
2024/04/10 01:11:20;;;;;;;8.35;2.58;;;11.00;99.90;;;;;;5475462;26;19998;-35
2024/04/10 01:13:45;;;;;;;10.40;2.90;;;11.00;99.90;;;;;;5476202;26;20024;-34
2024/04/10 01:16:11;;;;;;;8.13;2.83;;;11.00;99.90;;;;;;5476363;26;20014;-36
2024/04/10 01:18:36;;;;;;;6.25;2.25;;;11.00;99.90;;;;;;5474940;26;20053;-35
2024/04/10 01:21:02;;;;;;;5.82;1.83;;;11.00;99.90;;;;;;5475092;26;20034;-35
2024/04/10 01:23:28;;;;;;;10.52;2.67;;;11.00;99.90;;;;;;5475778;26;20016;-35
2024/04/10 01:25:56;;;;;;;9.40;3.15;;;11.00;99.90;;;;;;5474467;26;20814;-34
2024/04/10 01:28:22;;;;;;;6.60;2.67;;;10.90;99.90;;;;;;5505993;26;19997;-33
2024/04/10 01:30:47;;;;;;;5.85;2.33;;;10.90;99.90;;;;;;5482982;26;19994;-34
2024/04/10 01:33:13;;;;;;;4.40;2.13;;;10.70;99.90;;;;;;5476420;26;19998;-36
2024/04/10 01:35:39;;;;;;;3.53;1.80;;;10.60;99.90;;;;;;5476291;26;20029;-35
2024/04/10 01:38:04;;;;;;;3.63;2.20;;;10.50;99.90;;;;;;5475099;26;19998;-35
2024/04/10 01:40:31;;;;;;;3.40;1.98;;;10.50;99.90;;;;;;5476218;26;20051;-35
2024/04/10 01:42:56;;;;;;;5.28;1.70;;;10.50;99.90;;;;;;5475618;26;20010;-33
2024/04/10 01:45:22;;;;;;;2.88;1.60;;;10.50;99.90;;;;;;5474924;26;20024;-32
2024/04/10 01:47:47;;;;;;;4.65;2.20;;;10.50;99.90;;;;;;5475784;26;20003;-35
2024/04/10 01:50:13;;;;;;;2.97;1.60;;;10.40;99.90;;;;;;5476385;26;20017;-34
2024/04/10 01:52:38;;;;;;;5.45;2.05;;;10.40;99.90;;;;;;5474787;26;20002;-35
2024/04/10 01:55:05;;;;;;;7.90;2.50;;;10.40;99.90;;;;;;5475631;26;20002;-31
2024/04/10 01:57:30;;;;;;;4.85;2.15;;;10.40;99.90;;;;;;5475843;26;20327;-35
2024/04/10 01:59:56;;;;;;;7.45;2.92;;;10.40;99.90;;;;;;5474942;26;20013;-32
2024/04/10 02:02:21;;;;;;;5.18;1.85;;;10.40;99.90;;;;;;5475739;26;20519;-32
2024/04/10 02:04:47;;;;;;;5.90;2.15;;;10.40;99.90;;;;;;5476104;26;20070;-32
2024/04/10 02:07:13;;;;;;;6.65;2.60;;;10.40;99.90;;;;;;5474525;26;19994;-35
2024/04/10 02:09:38;;;;;;;7.65;2.90;;;10.40;99.90;;;;;;5475042;26;20903;-31
2024/04/10 02:12:04;;;;;;;5.68;2.47;;;10.50;99.90;;;;;;5475399;26;20017;-33
2024/04/10 02:14:30;;;;;;;4.43;2.40;;;10.50;99.90;;;;;;5474840;26;20067;-39
2024/04/10 02:16:56;;;;;;;4.72;2.17;;;10.50;99.90;;;;;;5475834;26;20013;-37
2024/04/10 02:19:22;;;;;;;8.45;2.60;;;10.50;99.90;;;;;;5475432;26;19999;-36
2024/04/10 02:21:47;;;;;;;7.97;2.63;;;10.50;99.90;;;;;;5474874;26;20598;-37
2024/04/10 02:24:15;;;;;;;6.82;2.67;;;10.50;99.90;;;;;;5475685;26;20563;-36
2024/04/10 02:26:41;;;;;;;6.97;2.60;;;10.40;99.90;;;;;;5474971;26;20119;-35
2024/04/10 02:29:09;;;;;;;7.97;2.75;;;10.50;99.90;;;;;;5474064;26;20428;-37
2024/04/10 02:31:35;;;;;;;7.32;2.78;;;10.50;99.90;;;;;;5474638;26;20013;-37
2024/04/10 02:34:01;;;;;;;8.57;2.72;;;10.50;99.90;;;;;;5473993;26;20014;-33
2024/04/10 02:36:29;;;;;;;6.65;2.47;;;10.50;99.90;;;;;;5475078;26;20005;-37
2024/04/10 02:38:54;;;;;;;4.53;1.70;;;10.50;99.90;;;;;;5474917;26;20009;-35
2024/04/10 02:41:20;;;;;;;5.95;2.15;;;10.50;99.90;;;;;;5474485;26;19994;-34
2024/04/10 02:43:48;;;;;;;4.50;1.90;;;10.50;99.90;;;;;;5475020;26;19999;-36
2024/04/10 02:46:16;;;;;;;3.20;1.98;;;10.50;99.90;;;;;;5475459;26;20002;-31
2024/04/10 02:48:43;;;;;;;3.67;2.28;;;10.50;99.90;;;;;;5473724;26;20383;-36
2024/04/10 02:51:08;;;;;;;3.53;1.75;;;10.50;99.90;;;;;;5473739;26;20123;-38
2024/04/10 02:53:34;;;;;;;3.90;1.88;;;10.60;99.90;;;;;;5474769;26;20002;-35
2024/04/10 02:56:00;;;;;;;5.95;2.30;;;10.60;99.90;;;;;;5474287;26;20086;-34
2024/04/10 02:58:25;;;;;;;6.38;2.10;;;10.60;99.90;;;;;;5475004;26;20017;-37
2024/04/10 03:00:53;;;;;;;5.00;2.08;;;10.60;99.90;;;;;;5474899;26;20785;-37
2024/04/10 03:03:19;;;;;;;4.00;1.90;;;10.60;99.90;;;;;;5473551;26;20006;-37
2024/04/10 03:06:08;;;;;;;4.65;2.28;;;10.60;99.90;;;;;;5475489;26;20009;-34
2024/04/10 03:08:35;;;;;;;6.78;2.60;;;10.60;99.90;;;;;;5443963;26;20001;-39
2024/04/10 03:11:01;;;;;;;5.68;2.40;;;10.60;99.90;;;;;;5473833;26;19998;-36
2024/04/10 03:13:27;;;;;;;5.22;2.40;;;10.60;99.90;;;;;;5475320;26;20528;-36
2024/04/10 03:15:53;;;;;;;4.82;2.17;;;10.60;99.90;;;;;;5474513;26;20444;-31
2024/04/10 03:18:20;;;;;;;8.02;2.63;;;10.60;99.90;;;;;;5474243;26;19994;-36
2024/04/10 03:20:46;;;;;;;4.25;2.35;;;10.60;99.90;;;;;;5474749;26;20012;-36
2024/04/10 03:23:12;;;;;;;4.35;2.10;;;10.60;99.90;;;;;;5473571;26;20452;-34
2024/04/10 03:25:38;;;;;;;6.55;2.80;;;10.60;99.90;;;;;;5474784;26;19994;-37
2024/04/10 03:28:05;;;;;;;4.25;2.10;;;10.50;99.90;;;;;;5474672;26;20075;-35
2024/04/10 03:30:33;;;;;;;6.03;2.45;;;10.60;99.90;;;;;;5472779;26;20528;-39
2024/04/10 03:32:59;;;;;;;4.50;2.33;;;10.60;99.90;;;;;;5474535;26;20002;-33
2024/04/10 03:35:25;;;;;;;5.20;2.33;;;10.50;99.90;;;;;;5473335;26;20058;-36
2024/04/10 03:37:51;;;;;;;5.10;2.20;;;10.60;99.90;;;;;;5473710;26;20074;-31
2024/04/10 03:40:17;;;;;;;7.30;2.88;;;10.50;99.90;;;;;;5474068;26;20423;-35
2024/04/10 03:42:43;;;;;;;5.50;2.60;;;10.60;99.90;;;;;;5474570;26;20002;-35
2024/04/10 03:45:12;;;;;;;4.70;2.53;;;10.60;99.90;;;;;;5473178;26;20552;-35
2024/04/10 03:47:38;;;;;;;6.15;2.58;;;10.60;99.90;;;;;;5473802;26;20504;-35
2024/04/10 03:50:04;;;;;;;4.85;2.20;;;10.60;99.90;;;;;;5474024;26;20020;-35
2024/04/10 03:52:30;;;;;;;4.63;2.30;;;10.60;99.90;;;;;;5473549;26;20352;-38
2024/04/10 03:54:55;;;;;;;6.43;2.28;;;10.60;99.90;;;;;;5473690;26;20002;-35
2024/04/10 03:57:21;;;;;;;5.75;2.38;;;10.60;99.90;;;;;;5473728;26;20013;-34
2024/04/10 03:59:46;;;;;;;5.85;2.63;;;10.60;99.90;;;;;;5472374;26;19998;-34
2024/04/10 04:02:12;;;;;;;6.30;2.47;;;10.60;99.90;;;;;;5476196;26;20022;-35
2024/04/10 04:04:38;;;;;;;5.32;2.53;;;10.60;99.90;;;;;;5477651;26;20005;-37
2024/04/10 04:07:04;;;;;;;6.78;3.15;;;10.60;99.90;;;;;;5477053;26;20033;-35
2024/04/10 04:09:30;;;;;;;8.35;2.78;;;10.60;99.90;;;;;;5477120;26;20005;-37
2024/04/10 04:11:55;;;;;;;7.80;2.88;;;10.60;99.90;;;;;;5477175;26;20006;-36
2024/04/10 04:14:21;;;;;;;7.15;3.00;;;10.50;99.90;;;;;;5477209;26;20074;-38
2024/04/10 04:16:48;;;;;;;6.70;2.65;;;10.50;99.90;;;;;;5478188;26;19998;-38
2024/04/10 04:19:14;;;;;;;6.60;2.50;;;10.50;99.90;;;;;;5477427;26;20473;-35
2024/04/10 04:21:39;;;;;;;6.90;2.75;;;10.50;99.90;;;;;;5476540;26;19998;-38
2024/04/10 04:24:05;;;;;;;5.57;2.47;;;10.50;99.90;;;;;;5476595;26;20025;-34
2024/04/10 04:26:34;;;;;;;7.03;2.42;;;10.50;99.90;;;;;;5475981;26;19994;-36
2024/04/10 04:28:59;;;;;;;6.10;2.60;;;10.50;99.90;;;;;;5476456;26;20469;-38
2024/04/10 04:31:25;;;;;;;6.15;2.00;;;10.50;99.90;;;;;;5476270;26;20002;-34
2024/04/10 04:33:54;;;;;;;7.35;2.10;;;10.50;99.90;;;;;;5476344;26;20009;-38
2024/04/10 04:36:19;;;;;;;7.30;2.03;;;10.50;99.90;;;;;;5476376;26;20014;-38
2024/04/10 04:38:46;;;;;;;5.22;2.30;;;10.50;99.90;;;;;;5477218;26;20079;-36
2024/04/10 04:41:12;;;;;;;6.80;2.83;;;10.40;99.90;;;;;;5475284;26;20010;-35
2024/04/10 04:43:37;;;;;;;5.53;2.25;;;10.40;99.90;;;;;;5476444;26;19994;-39
2024/04/10 04:46:03;;;;;;;6.20;2.13;;;10.40;99.90;;;;;;5476859;26;19998;-35
2024/04/10 04:48:32;;;;;;;3.88;1.77;;;10.40;99.90;;;;;;5475536;26;20452;-36
2024/04/10 04:50:57;;;;;;;6.30;1.92;;;10.40;99.90;;;;;;5476922;26;20100;-37
2024/04/10 04:53:23;;;;;;;7.95;2.28;;;10.40;99.90;;;;;;5477370;26;19998;-37
2024/04/10 04:55:49;;;;;;;6.63;2.17;;;10.40;99.90;;;;;;5476082;26;20002;-34
2024/04/10 04:58:14;;;;;;;3.22;1.85;;;10.40;99.90;;;;;;5476374;26;19998;-38
2024/04/10 05:00:40;;;;;;;6.55;2.40;;;10.40;99.90;;;;;;5476211;26;20002;-36
2024/04/10 05:03:09;;;;;;;4.75;1.80;;;10.40;99.90;;;;;;5475503;26;19998;-39
2024/04/10 05:05:36;;;;;;;6.10;2.28;;;10.40;99.90;;;;;;5476461;26;20448;-39
2024/04/10 05:08:02;;;;;;;7.20;2.47;;;10.40;99.90;;;;;;5476177;26;19998;-37
2024/04/10 05:10:28;;;;;;;4.70;2.20;;;10.40;99.90;;;;;;5475228;26;20748;-38
2024/04/10 05:12:54;;;;;;;7.57;2.75;;;10.40;99.90;;;;;;5474106;26;20013;-35
2024/04/10 05:15:19;;;;;;;5.45;2.33;;;10.40;99.90;;;;;;5475729;26;20010;-38
2024/04/10 05:17:49;;;;;;;6.32;2.60;;;10.40;99.90;;;;;;5475321;26;20010;-39
2024/04/10 05:20:15;;;;;;;6.32;2.50;;;10.40;99.90;;;;;;5476350;26;20822;-37
2024/04/10 05:22:43;;;;;;;5.25;2.00;;;10.40;99.90;;;;;;5476259;26;20002;-36
2024/04/10 05:25:10;;;;;;;8.25;2.75;;;10.40;99.90;;;;;;5475874;26;20010;-35
2024/04/10 05:27:41;;;;;;;5.20;2.13;;;10.40;99.90;;;;;;5475984;26;20002;-36
2024/04/10 05:30:08;;;;;;;4.25;1.95;;;10.40;99.90;;;;;;5488925;26;20330;-36
2024/04/10 05:32:38;;;;;;;6.50;2.38;;;10.40;99.90;;;;;;5504029;26;20013;-35
2024/04/10 05:35:09;;;;;;;4.70;2.30;;;10.40;99.90;;;;;;5475578;26;20053;-37
2024/04/10 05:37:35;;;;;;;4.55;1.80;;;10.40;99.90;;;;;;5474354;26;20491;-39
2024/04/10 05:40:05;;;;;;;3.47;1.67;;;10.40;99.90;;;;;;5472768;26;20011;-37
2024/04/10 05:42:33;;;;;;;5.80;2.30;;;10.40;99.90;;;;;;5474404;26;20783;-36
2024/04/10 05:44:59;;;;;;;5.32;2.20;;;10.40;99.90;;;;;;5473733;26;19998;-38
2024/04/10 05:47:24;;;;;;;4.75;1.85;;;10.50;99.90;;;;;;5474621;26;20871;-38
2024/04/10 05:49:50;;;;;;;5.53;1.95;;;10.50;99.90;;;;;;5474469;26;20017;-37
2024/04/10 05:52:15;;;;;;;5.10;1.77;;;10.40;99.90;;;;;;5474477;26;20002;-36
2024/04/10 05:54:41;;;;;;;7.35;2.28;;;10.50;99.90;;;;;;5474230;26;19998;-35
2024/04/10 05:57:07;;;;;;;5.28;1.90;;;10.50;99.90;;;;;;5474791;26;21036;-38
2024/04/10 05:59:32;;;;;;;5.10;2.00;;;10.50;99.90;;;;;;5473192;26;19998;-37
2024/04/10 06:01:58;;;;;;;5.53;2.25;;;10.50;99.90;;;;;;5474271;26;20011;-38
2024/04/10 06:04:24;;;;;;;5.18;2.00;;;10.50;99.90;;;;;;5474343;26;20577;-37
2024/04/10 06:06:50;;;;;;;4.35;2.00;;;10.60;99.90;;;;;;5473946;26;20002;-34
2024/04/10 06:09:18;;;;;;;4.68;1.88;;;10.60;99.90;;;;;;5474005;26;20012;-39
2024/04/10 06:11:44;;;;;;;7.13;3.20;;;10.70;99.90;;;;;;5475279;26;19998;-34
2024/04/10 06:14:09;;;;;;;5.68;2.30;;;10.70;99.90;;;;;;5473888;26;19994;-36
2024/04/10 06:16:35;;;;;;;6.93;1.90;;;10.70;99.90;;;;;;5474886;26;19994;-36
2024/04/10 06:19:01;;;;;;;5.10;2.00;;;10.80;99.90;;;;;;5473259;26;20009;-33
2024/04/10 06:21:26;;;;;;;5.80;2.53;;;10.80;99.90;;;;;;5474698;26;20002;-37
2024/04/10 06:23:52;;;;;;;6.05;1.90;;;10.80;99.90;;;;;;5473928;26;20002;-38
2024/04/10 06:26:19;;;;;;;6.03;2.03;;;10.90;99.90;;;;;;5472932;26;20039;-38
2024/04/10 06:28:45;;;;;;;4.78;2.15;;;10.90;99.90;;;;;;5474469;26;20006;-36
2024/04/10 06:31:13;;;;;;;6.40;1.90;;;11.00;99.90;;;;;;5473938;26;20433;-38
2024/04/10 06:33:39;;;;;;;2.85;1.67;;;11.00;99.90;;;;;;5474979;26;20005;-39
2024/04/10 06:36:07;;;;;;;4.60;1.90;;;11.10;99.90;;;;;;5475253;26;20013;-34
2024/04/10 06:38:34;;;;;;;10.05;2.42;;;11.10;99.90;;;;;;5438717;26;20060;-35
2024/04/10 06:41:01;;;;;;;5.10;1.92;;;11.20;99.90;;;;;;5463379;26;20006;-34
2024/04/10 06:43:27;;;;;;;5.25;1.80;;;11.20;99.90;;;;;;5474767;26;20010;-35
2024/04/10 06:46:03;;;;;;;3.38;1.80;;;11.20;99.90;;;;;;5474773;26;20074;-37
2024/04/10 06:48:29;;;;;;;8.20;2.17;;;11.20;99.90;;;;;;5474380;26;20010;-38
2024/04/10 06:51:00;;;;;;;4.00;1.50;;;11.20;99.90;;;;;;5474187;26;19998;-35
2024/04/10 06:53:26;;;;;;;5.78;1.70;;;11.30;99.90;;;;;;5474749;26;20410;-40
2024/04/10 06:56:02;;;;;;;4.90;1.70;;;11.30;99.90;;;;;;5473636;26;20018;-37
2024/04/10 06:58:30;;;;;;;3.92;1.73;;;11.30;99.90;;;;;;5475835;26;20002;-38
2024/04/10 07:01:02;;;;;;;6.40;2.15;;;11.40;99.90;;;;;;5474444;26;20505;-38
2024/04/10 07:03:32;;;;;;;4.53;2.00;;;11.40;99.90;;;;;;5473936;26;20018;-40
2024/04/10 07:06:10;;;;;;;6.10;1.67;;;11.50;99.90;;;;;;5474266;26;19998;-37
2024/04/10 07:08:39;;;;;;;5.55;2.00;;;11.50;99.90;;;;;;5474017;26;20026;-37
2024/04/10 07:11:14;;;;;;;4.63;1.60;;;11.60;99.90;;;;;;5475045;26;20005;-37
2024/04/10 07:13:46;;;;;;;7.05;2.47;;;11.60;99.90;;;;;;5475128;26;20568;-34
2024/04/10 07:16:12;;;;;;;4.95;2.20;;;11.60;99.90;;;;;;5473670;26;20028;-38
2024/04/10 07:18:43;;;;;;;5.78;2.08;;;11.70;99.90;;;;;;5474916;26;20002;-37
2024/04/10 07:21:10;;;;;;;6.43;1.90;;;11.70;99.90;;;;;;5474801;26;20406;-36
2024/04/10 07:23:37;;;;;;;3.60;2.00;;;11.70;99.90;;;;;;5473379;26;20002;-40
2024/04/10 07:26:13;;;;;;;7.70;2.22;;;11.80;99.90;;;;;;5474345;26;20009;-39
2024/04/10 07:28:52;;;;;;;5.63;2.45;;;11.80;99.90;;;;;;5473762;26;20017;-36
2024/04/10 07:31:20;;;;;;;6.45;1.80;;;11.80;99.90;;;;;;5473936;26;20014;-32
2024/04/10 07:33:47;;;;;;;6.70;2.30;;;11.80;99.90;;;;;;5474137;26;20006;-36
2024/04/10 07:36:15;;;;;;;6.53;1.98;;;11.90;99.90;;;;;;5473285;26;19998;-35
2024/04/10 07:38:41;;;;;;;4.65;1.98;;;11.80;99.90;;;;;;5471455;26;20002;-36
2024/04/10 07:41:08;;;;;;;4.38;1.92;;;11.80;99.90;;;;;;5474457;26;20005;-37
2024/04/10 07:43:34;;;;;;;3.90;1.70;;;11.80;99.90;;;;;;5473496;26;20009;-38
2024/04/10 07:46:10;;;;;;;8.43;2.30;;;11.80;99.90;;;;;;5474502;26;20448;-38
2024/04/10 07:48:37;;;;;;;6.30;2.08;;;11.80;99.90;;;;;;5473759;26;20013;-35
2024/04/10 07:51:09;;;;;;;5.03;1.63;;;11.80;99.90;;;;;;5473060;26;19998;-33
2024/04/10 07:53:37;;;;;;;4.38;1.98;;;11.80;99.90;;;;;;5474183;26;20061;-40
2024/04/10 07:56:03;;;;;;;4.82;2.00;;;11.80;99.90;;;;;;5473684;26;20034;-35
2024/04/10 07:58:33;;;;;;;8.80;2.22;;;11.80;99.90;;;;;;5473017;26;19994;-39
2024/04/10 08:00:59;;;;;;;8.10;2.50;;;11.80;99.90;;;;;;5473888;26;20524;-34
2024/04/10 08:03:25;;;;;;;7.07;2.25;;;11.80;99.90;;;;;;5473009;26;20005;-32
2024/04/10 08:05:55;;;;;;;4.63;2.00;;;11.90;99.90;;;;;;5472984;26;19995;-33
2024/04/10 08:08:21;;;;;;;6.57;2.25;;;11.90;99.90;;;;;;5473299;26;20070;-33
2024/04/10 08:10:54;;;;;;;5.63;1.95;;;11.90;99.90;;;;;;5474055;26;20010;-38
2024/04/10 08:13:20;;;;;;;6.82;1.90;;;12.00;99.90;;;;;;5473650;26;20021;-34
2024/04/10 08:16:04;;;;;;;11.25;2.20;;;12.00;99.90;;;;;;5473922;26;20548;-37
2024/04/10 08:18:32;;;;;;;6.60;2.15;;;12.10;99.90;;;;;;5473187;26;20017;-38
2024/04/10 08:20:59;;;;;;;12.27;3.13;;;12.10;99.90;;;;;;5472935;26;20035;-34
2024/04/10 08:23:25;;;;;;;6.65;2.40;;;12.00;99.90;;;;;;5473199;26;20010;-40
2024/04/10 08:25:50;;;;;;;11.25;2.33;;;12.00;99.90;;;;;;5472748;26;20009;-38
2024/04/10 08:28:17;;;;;;;6.30;2.25;;;12.00;99.90;;;;;;5473349;26;20002;-37
2024/04/10 08:30:43;;;;;;;12.63;3.78;;;12.00;99.90;;;;;;5472931;26;20430;-37
2024/04/10 08:33:09;;;;;;;8.52;2.80;;;12.00;99.90;;;;;;5470353;26;20009;-37
2024/04/10 08:35:34;;;;;;;6.68;2.28;;;12.00;99.90;;;;;;5472999;26;20048;-36
2024/04/10 08:38:08;;;;;;;6.40;2.25;;;12.10;99.90;;;;;;5473935;26;19998;-38
2024/04/10 08:40:38;;;;;;;6.05;2.05;;;12.10;99.90;;;;;;5472708;26;20009;-36
2024/04/10 08:43:06;;;;;;;6.32;2.17;;;12.20;99.90;;;;;;5474187;26;20740;-37
2024/04/10 08:45:32;;;;;;;6.53;2.17;;;12.30;99.90;;;;;;5473018;26;20442;-33
2024/04/10 08:48:01;;;;;;;7.88;1.80;;;12.30;99.90;;;;;;5474916;26;20005;-39
2024/04/10 08:50:29;;;;;;;7.53;1.92;;;12.30;99.90;;;;;;5477049;26;19998;-37
2024/04/10 08:52:56;;;;;;;3.78;1.80;;;12.30;99.90;;;;;;5476221;26;19998;-35
2024/04/10 08:55:21;;;;;;;5.10;1.60;;;12.40;99.90;;;;;;5476089;26;20001;-36
2024/04/10 08:57:47;;;;;;;9.07;2.65;;;12.50;99.90;;;;;;5476961;26;19998;-37
2024/04/10 09:00:13;;;;;;;5.68;1.85;;;12.60;99.90;;;;;;5476278;26;19998;-38
2024/04/10 09:02:38;;;;;;;4.45;1.38;;;12.60;99.90;;;;;;5476288;26;19998;-32
2024/04/10 09:05:07;;;;;;;5.53;1.77;;;12.60;99.90;;;;;;5475899;26;20075;-38
2024/04/10 09:07:32;;;;;;;6.53;2.10;;;12.50;99.90;;;;;;5476326;26;20014;-35
2024/04/10 09:10:11;;;;;;;4.95;2.00;;;12.50;99.90;;;;;;5475381;26;20005;-37
2024/04/10 09:12:36;;;;;;;6.43;2.00;;;12.50;99.90;;;;;;5475864;26;19994;-38
2024/04/10 09:15:09;;;;;;;3.90;1.55;;;12.50;99.90;;;;;;5475749;26;20016;-37
2024/04/10 09:17:34;;;;;;;4.72;1.77;;;12.50;99.90;;;;;;5456080;26;20016;-34
2024/04/10 09:20:13;;;;;;;5.00;2.28;;;12.50;99.90;;;;;;5475989;26;20047;-39
2024/04/10 09:22:38;;;;;;;7.78;2.55;;;12.60;99.90;;;;;;5476245;26;19998;-36
2024/04/10 09:25:13;;;;;;;8.55;2.90;;;12.70;99.90;;;;;;5475951;26;20010;-34
2024/04/10 09:27:39;;;;;;;6.25;2.50;;;12.70;99.90;;;;;;5476170;26;20046;-35
2024/04/10 09:30:14;;;;;;;6.78;2.20;;;12.70;99.90;;;;;;5475277;26;20129;-36
2024/04/10 09:32:39;;;;;;;6.32;2.55;;;12.80;99.90;;;;;;5469016;26;20539;-38
2024/04/10 09:35:06;;;;;;;4.65;1.80;;;12.80;99.90;;;;;;5475827;26;19994;-35
2024/04/10 09:37:34;;;;;;;6.22;2.08;;;12.80;99.90;;;;;;5475116;26;19998;-34
2024/04/10 09:40:00;;;;;;;9.43;2.60;;;12.80;99.90;;;;;;5475456;26;19994;-38
2024/04/10 09:42:27;;;;;;;10.23;2.42;;;12.80;99.90;;;;;;5474685;26;19990;-32
2024/04/10 09:45:06;;;;;;;5.95;2.20;;;12.80;99.90;;;;;;5475678;26;20034;-33
2024/04/10 09:47:33;;;;;;;4.22;1.70;;;12.90;99.90;;;;;;5475661;26;20216;-38
2024/04/10 09:49:59;;;;;;;6.32;1.77;;;12.90;99.90;;;;;;5476057;26;20885;-33
2024/04/10 09:52:28;;;;;;;4.30;1.77;;;12.90;99.90;;;;;;5476786;26;19990;-33
2024/04/10 09:54:55;;;;;;;4.30;1.65;;;13.00;99.90;;;;;;5475795;26;20029;-35
2024/04/10 09:57:25;;;;;;;6.63;2.10;;;13.00;99.90;;;;;;5474863;26;20004;-35
2024/04/10 09:59:51;;;;;;;7.95;2.20;;;13.10;99.90;;;;;;5475234;26;20017;-31
2024/04/10 10:02:18;;;;;;;3.42;1.90;;;13.20;99.90;;;;;;5476098;26;19994;-35
2024/04/10 10:04:44;;;;;;;5.72;1.65;;;13.30;99.90;;;;;;5475087;26;20010;-38
2024/04/10 10:07:10;;;;;;;4.65;1.60;;;13.30;99.90;;;;;;5475458;26;20101;-36
2024/04/10 10:09:36;;;;;;;5.32;1.65;;;13.30;99.90;;;;;;5476163;26;20002;-35
2024/04/10 10:12:02;;;;;;;6.45;1.88;;;13.40;99.90;;;;;;5474988;26;20349;-37
2024/04/10 10:14:30;;;;;;;8.23;1.92;;;13.50;99.90;;;;;;5476141;26;20091;-36
2024/04/10 10:17:08;;;;;;;4.72;1.73;;;13.60;99.90;;;;;;5475809;26;20020;-35
2024/04/10 10:19:38;;;;;;;4.05;1.60;;;13.60;99.90;;;;;;5474753;26;20943;-40
2024/04/10 10:22:04;;;;;;;4.43;1.50;;;13.60;99.90;;;;;;5475153;26;20038;-39
2024/04/10 10:24:30;;;;;;;4.30;1.40;;;13.60;99.90;;;;;;5475024;26;19998;-37
2024/04/10 10:26:59;;;;;;;4.53;1.60;;;13.60;99.90;;;;;;5475016;26;20026;-40
2024/04/10 10:29:27;;;;;;;4.03;1.60;;;13.50;99.90;;;;;;5473440;26;20043;-36
2024/04/10 10:32:05;;;;;;;3.85;1.52;;;13.50;99.90;;;;;;5475524;26;20326;-38
2024/04/10 10:34:32;;;;;;;4.10;1.27;;;13.50;99.90;;;;;;5473277;26;20009;-36
2024/04/10 10:37:06;;;;;;;5.10;1.27;;;13.50;99.90;;;;;;5476234;26;20031;-36
2024/04/10 10:39:32;;;;;;;5.32;1.23;;;13.50;99.90;;;;;;5474885;26;19994;-37
2024/04/10 10:42:07;;;;;;;3.05;1.13;;;13.50;99.90;;;;;;5475791;26;20010;-36
2024/04/10 10:44:35;;;;;;;3.55;1.58;;;13.60;99.90;;;;;;5474770;26;20013;-36
2024/04/10 10:47:07;;;;;;;3.38;1.10;;;13.60;99.90;;;;;;5475349;26;19994;-41
2024/04/10 10:49:33;;;;;;;3.60;1.20;;;13.80;99.90;;;;;;5474922;26;20414;-37
2024/04/10 10:51:58;;;;;;;2.38;0.90;;;14.00;99.90;;;;;;5475250;26;19994;-34
2024/04/10 10:54:24;;;;;;;3.42;1.20;;;14.10;99.90;;;;;;5473658;26;20012;-36
2024/04/10 10:56:50;;;;;;;4.55;1.35;;;14.20;99.90;;;;;;5475402;26;19998;-35
2024/04/10 10:59:16;;;;;;;3.75;1.15;;;14.10;99.90;;;;;;5474613;26;19994;-37
2024/04/10 11:01:42;;;;;;;4.05;1.25;;;14.10;99.90;;;;;;5474275;26;20050;-39
2024/04/10 11:04:14;;;;;;;3.70;1.30;;;14.10;99.90;;;;;;5475391;26;20009;-34
2024/04/10 11:06:40;;;;;;;;;;;14.00;99.90;;;;;;5474944;26;20541;-38
2024/04/10 11:09:26;;;;;;;4.30;1.25;;;14.00;99.90;;;;;;5473868;26;19933;-36
2024/04/10 11:11:57;;;;;;;3.97;1.20;;;13.90;99.90;;;;;;5472403;26;20009;-37
2024/04/10 11:14:23;;;;;;;5.00;1.13;;;13.90;99.90;;;;;;5474116;26;19990;-39
2024/04/10 11:17:03;;;;;;;2.60;0.90;;;13.80;99.90;;;;;;5473781;26;20005;-35
2024/04/10 11:19:30;;;;;;;2.83;0.80;;;13.80;99.90;;;;;;5473871;26;20013;-36
2024/04/10 11:21:56;;;;;;;4.72;1.25;;;13.80;99.90;;;;;;5474079;26;20043;-33
2024/04/10 11:24:21;;;;;;;2.53;0.88;;;13.80;99.90;;;;;;5474487;26;20002;-36
2024/04/10 11:26:47;;;;;;;3.45;1.20;;;13.80;99.90;;;;;;5474601;26;20013;-34
2024/04/10 11:29:13;;;;;;;7.10;1.80;;;13.90;99.90;;;;;;5474388;26;20544;-38
2024/04/10 11:33:28;;;;;;;4.60;1.35;;;14.00;99.90;;;;;;5530359;25;20345;-37
2024/04/10 11:35:55;;;;;;;5.15;1.20;;;14.10;99.90;;;;;;5549273;25;20475;-36
2024/04/10 11:38:21;;;;;;;4.28;1.10;;;14.00;99.90;;;;;;5533385;25;20024;-39
2024/04/10 11:40:46;;;;;;;4.25;1.17;;;14.00;99.90;;;;;;5545550;25;20084;-35
2024/04/10 11:43:12;;;;;;;3.47;1.10;;;14.00;99.90;;;;;;5536614;25;19993;-35
2024/04/10 11:45:37;;;;;;;3.30;1.15;;;14.00;99.90;;;;;;5539672;25;20001;-38
2024/04/10 11:48:04;;;;;;;2.67;1.20;;;14.00;99.90;;;;;;5543246;25;19993;-39
2024/04/10 11:50:30;;;;;;;3.58;1.00;;;13.90;99.90;;;;;;5534995;25;20016;-36
2024/04/10 11:52:56;;;;;;;4.47;1.15;;;14.00;99.90;;;;;;5546847;25;20499;-38
2024/04/10 11:55:22;;;;;;;4.60;1.30;;;14.00;99.90;;;;;;5563156;25;20004;-38
2024/04/10 11:57:48;;;;;;;3.15;1.02;;;14.10;99.90;;;;;;5545388;25;20055;-38
2024/04/10 12:00:14;;;;;;;2.30;0.93;;;14.20;99.90;;;;;;5563441;25;20004;-34
2024/04/10 12:02:40;;;;;;;3.00;0.75;;;14.30;99.90;;;;;;5546099;25;19989;-32
2024/04/10 12:05:09;;;;;;;4.20;1.00;;;14.50;99.90;;;;;;5566375;25;20003;-34
2024/04/10 12:07:35;;;;;;;4.63;0.90;;;14.60;99.90;;;;;;5543147;25;20025;-38
2024/04/10 12:10:04;;;;;;;3.70;0.98;;;14.70;99.90;;;;;;5567207;25;19996;-38
2024/04/10 12:12:31;;;;;;;2.45;0.95;;;14.80;99.50;;;;;;5541222;25;20008;-36
2024/04/10 12:14:57;;;;;;;2.45;0.80;;;14.90;99.40;;;;;;5567586;25;20084;-36
2024/04/10 12:17:23;;;;;;;2.75;0.85;;;14.90;98.90;;;;;;5545088;25;19989;-36
2024/04/10 12:19:48;;;;;;;2.35;0.90;;;15.00;98.10;;;;;;5565056;25;20020;-37
2024/04/10 12:22:14;;;;;;;2.35;0.80;;;14.90;97.10;;;;;;5550290;25;20004;-34
2024/04/10 12:24:43;;;;;;;2.70;0.80;;;14.80;96.20;;;;;;5559808;25;20032;-36
2024/04/10 12:27:08;;;;;;;5.10;0.90;;;14.70;95.50;;;;;;5553447;25;20016;-34
2024/04/10 12:29:34;;;;;;;2.83;0.93;;;14.60;95.30;;;;;;5555679;25;20001;-36
2024/04/10 12:31:59;;;;;;;3.60;1.00;;;14.60;94.80;;;;;;5557954;25;21460;-36
2024/04/10 12:34:25;;;;;;;2.28;0.85;;;14.50;94.70;;;;;;5551026;25;20072;-36
2024/04/10 12:39:36;;;;;;;3.65;0.90;;;14.60;95.40;;;;;;5550299;25;20084;-36
2024/04/10 12:42:04;;;;;;;1.45;0.70;;;14.70;95.50;;;;;;5563508;25;20001;-36
2024/04/10 12:44:30;;;;;;;1.85;0.70;;;14.70;95.60;;;;;;5530355;25;20013;-37
2024/04/10 12:46:57;;;;;;;5.43;1.35;;;14.70;95.20;;;;;;5547724;25;20836;-38
2024/04/10 12:49:24;;;;;;;2.58;1.10;;;14.80;95.20;;;;;;5529208;25;19997;-35
2024/04/10 12:51:50;;;;;;;1.88;0.77;;;14.90;95.20;;;;;;5549018;25;19996;-38